sensor_id;sensor_type;location;lat;lon;timestamp;temperature;humidity
10247;DHT22;5168;47.854;7.944;2023-02-23T00:06:36;5.10;99.90
10247;DHT22;5168;47.854;7.944;2023-02-23T00:09:04;5.10;99.90
10247;DHT22;5168;47.854;7.944;2023-02-23T00:11:54;5.80;99.90
10247;DHT22;5168;47.854;7.944;2023-02-23T00:14:22;5.20;99.90
10247;DHT22;5168;47.854;7.944;2023-02-23T00:21:41;5.00;99.90
10247;DHT22;5168;47.854;7.944;2023-02-23T00:24:09;5.10;99.90
10247;DHT22;5168;47.854;7.944;2023-02-23T00:26:38;5.10;99.90
10247;DHT22;5168;47.854;7.944;2023-02-23T00:29:24;4.50;99.90
10247;DHT22;5168;47.854;7.944;2023-02-23T00:31:51;5.10;99.90
10247;DHT22;5168;47.854;7.944;2023-02-23T00:34:18;4.90;99.90
10247;DHT22;5168;47.854;7.944;2023-02-23T00:36:52;5.00;99.90
10247;DHT22;5168;47.854;7.944;2023-02-23T00:39:19;5.00;99.90
10247;DHT22;5168;47.854;7.944;2023-02-23T00:41:53;4.90;99.90
10247;DHT22;5168;47.854;7.944;2023-02-23T00:44:20;5.20;99.90
10247;DHT22;5168;47.854;7.944;2023-02-23T00:46:48;5.10;99.90
10247;DHT22;5168;47.854;7.944;2023-02-23T00:49:16;5.40;99.90
10247;DHT22;5168;47.854;7.944;2023-02-23T00:51:42;4.70;99.90
10247;DHT22;5168;47.854;7.944;2023-02-23T00:54:10;4.90;99.90
10247;DHT22;5168;47.854;7.944;2023-02-23T00:56:37;4.90;99.90
10247;DHT22;5168;47.854;7.944;2023-02-23T00:59:03;5.10;99.90
10247;DHT22;5168;47.854;7.944;2023-02-23T01:06:21;5.00;99.90
10247;DHT22;5168;47.854;7.944;2023-02-23T01:08:49;4.90;99.90
10247;DHT22;5168;47.854;7.944;2023-02-23T01:11:18;4.90;99.90
10247;DHT22;5168;47.854;7.944;2023-02-23T01:13:46;4.90;99.90
10247;DHT22;5168;47.854;7.944;2023-02-23T01:16:14;4.90;99.90
10247;DHT22;5168;47.854;7.944;2023-02-23T01:18:41;4.90;99.90
10247;DHT22;5168;47.854;7.944;2023-02-23T01:23:40;5.00;99.90
10247;DHT22;5168;47.854;7.944;2023-02-23T01:26:14;4.70;99.90
10247;DHT22;5168;47.854;7.944;2023-02-23T01:28:39;4.90;99.90
10247;DHT22;5168;47.854;7.944;2023-02-23T01:31:07;4.70;99.90
10247;DHT22;5168;47.854;7.944;2023-02-23T01:33:33;4.70;99.90
10247;DHT22;5168;47.854;7.944;2023-02-23T01:35:59;4.80;99.90
10247;DHT22;5168;47.854;7.944;2023-02-23T01:38:25;5.00;99.90
10247;DHT22;5168;47.854;7.944;2023-02-23T01:43:19;4.90;99.90
10247;DHT22;5168;47.854;7.944;2023-02-23T01:45:54;5.10;99.90
10247;DHT22;5168;47.854;7.944;2023-02-23T01:48:26;5.00;99.90
10247;DHT22;5168;47.854;7.944;2023-02-23T01:51:01;4.70;99.90
10247;DHT22;5168;47.854;7.944;2023-02-23T01:53:30;5.20;99.90
10247;DHT22;5168;47.854;7.944;2023-02-23T01:56:02;5.00;99.90
10247;DHT22;5168;47.854;7.944;2023-02-23T01:58:30;4.70;99.90
10247;DHT22;5168;47.854;7.944;2023-02-23T02:00:57;4.80;99.90
10247;DHT22;5168;47.854;7.944;2023-02-23T02:03:41;4.90;99.90
10247;DHT22;5168;47.854;7.944;2023-02-23T02:06:11;5.20;99.90
10247;DHT22;5168;47.854;7.944;2023-02-23T02:08:40;5.00;99.90
10247;DHT22;5168;47.854;7.944;2023-02-23T02:11:15;4.90;99.90
10247;DHT22;5168;47.854;7.944;2023-02-23T02:13:59;4.90;99.90
10247;DHT22;5168;47.854;7.944;2023-02-23T02:16:55;5.00;99.90
10247;DHT22;5168;47.854;7.944;2023-02-23T02:22:24;4.40;99.90
10247;DHT22;5168;47.854;7.944;2023-02-23T02:38:51;4.70;99.90
10247;DHT22;5168;47.854;7.944;2023-02-23T02:44:19;5.00;99.90
10247;DHT22;5168;47.854;7.944;2023-02-23T02:46:48;5.00;99.90
10247;DHT22;5168;47.854;7.944;2023-02-23T02:52:18;5.20;99.90
10247;DHT22;5168;47.854;7.944;2023-02-23T02:54:51;4.90;99.90
10247;DHT22;5168;47.854;7.944;2023-02-23T02:57:19;5.20;99.90
10247;DHT22;5168;47.854;7.944;2023-02-23T02:59:48;5.00;99.90
10247;DHT22;5168;47.854;7.944;2023-02-23T03:02:35;5.00;99.90
10247;DHT22;5168;47.854;7.944;2023-02-23T03:05:44;5.20;99.90
10247;DHT22;5168;47.854;7.944;2023-02-23T03:08:51;5.20;99.90
10247;DHT22;5168;47.854;7.944;2023-02-23T03:11:40;5.30;99.90
10247;DHT22;5168;47.854;7.944;2023-02-23T03:14:38;5.20;99.90
10247;DHT22;5168;47.854;7.944;2023-02-23T03:17:35;5.00;99.90
10247;DHT22;5168;47.854;7.944;2023-02-23T03:20:36;5.30;99.90
10247;DHT22;5168;47.854;7.944;2023-02-23T03:38:15;5.10;99.90
10247;DHT22;5168;47.854;7.944;2023-02-23T03:41:00;5.10;99.90
10247;DHT22;5168;47.854;7.944;2023-02-23T03:43:54;5.70;99.90
10247;DHT22;5168;47.854;7.944;2023-02-23T03:46:40;5.10;99.90
10247;DHT22;5168;47.854;7.944;2023-02-23T03:49:27;5.10;99.90
10247;DHT22;5168;47.854;7.944;2023-02-23T03:52:16;5.10;99.90
10247;DHT22;5168;47.854;7.944;2023-02-23T03:55:04;5.20;99.90
10247;DHT22;5168;47.854;7.944;2023-02-23T03:57:52;5.40;99.90
10247;DHT22;5168;47.854;7.944;2023-02-23T04:00:43;5.10;99.90
10247;DHT22;5168;47.854;7.944;2023-02-23T04:03:31;5.30;99.90
10247;DHT22;5168;47.854;7.944;2023-02-23T04:06:17;5.10;99.90
10247;DHT22;5168;47.854;7.944;2023-02-23T04:09:04;5.20;99.90
10247;DHT22;5168;47.854;7.944;2023-02-23T04:11:55;5.30;99.90
10247;DHT22;5168;47.854;7.944;2023-02-23T04:14:50;5.20;99.90
10247;DHT22;5168;47.854;7.944;2023-02-23T04:17:19;5.10;99.90
10247;DHT22;5168;47.854;7.944;2023-02-23T04:19:50;5.30;99.90
10247;DHT22;5168;47.854;7.944;2023-02-23T04:22:16;5.00;99.90
10247;DHT22;5168;47.854;7.944;2023-02-23T04:24:41;5.30;99.90
10247;DHT22;5168;47.854;7.944;2023-02-23T04:27:07;5.50;99.90
10247;DHT22;5168;47.854;7.944;2023-02-23T04:31:58;5.30;99.90
10247;DHT22;5168;47.854;7.944;2023-02-23T04:34:24;4.90;99.90
10247;DHT22;5168;47.854;7.944;2023-02-23T04:36:49;5.10;99.90
10247;DHT22;5168;47.854;7.944;2023-02-23T04:39:15;5.10;99.90
10247;DHT22;5168;47.854;7.944;2023-02-23T04:41:41;5.10;99.90
10247;DHT22;5168;47.854;7.944;2023-02-23T04:48:59;5.00;99.90
10247;DHT22;5168;47.854;7.944;2023-02-23T04:51:25;5.10;99.90
10247;DHT22;5168;47.854;7.944;2023-02-23T04:53:56;5.40;99.90
10247;DHT22;5168;47.854;7.944;2023-02-23T04:56:22;5.20;99.90
10247;DHT22;5168;47.854;7.944;2023-02-23T05:01:14;5.10;99.90
10247;DHT22;5168;47.854;7.944;2023-02-23T05:03:39;5.10;99.90
10247;DHT22;5168;47.854;7.944;2023-02-23T05:06:05;5.80;99.90
10247;DHT22;5168;47.854;7.944;2023-02-23T05:08:30;5.00;99.90
10247;DHT22;5168;47.854;7.944;2023-02-23T05:10:56;5.00;99.90
10247;DHT22;5168;47.854;7.944;2023-02-23T05:13:21;5.00;99.90
10247;DHT22;5168;47.854;7.944;2023-02-23T05:15:47;5.30;99.90
10247;DHT22;5168;47.854;7.944;2023-02-23T05:20:42;5.00;99.90
10247;DHT22;5168;47.854;7.944;2023-02-23T05:25:37;5.10;99.90
10247;DHT22;5168;47.854;7.944;2023-02-23T05:30:29;5.10;99.90
10247;DHT22;5168;47.854;7.944;2023-02-23T05:32:55;5.30;99.90
10247;DHT22;5168;47.854;7.944;2023-02-23T05:35:20;4.90;99.90
10247;DHT22;5168;47.854;7.944;2023-02-23T05:40:12;5.10;99.90
10247;DHT22;5168;47.854;7.944;2023-02-23T05:45:04;5.10;99.90
10247;DHT22;5168;47.854;7.944;2023-02-23T05:47:31;5.10;99.90
10247;DHT22;5168;47.854;7.944;2023-02-23T05:49:56;5.10;99.90
10247;DHT22;5168;47.854;7.944;2023-02-23T05:52:22;5.00;99.90
10247;DHT22;5168;47.854;7.944;2023-02-23T05:54:49;5.00;99.90
10247;DHT22;5168;47.854;7.944;2023-02-23T05:57:14;4.70;99.90
10247;DHT22;5168;47.854;7.944;2023-02-23T05:59:40;5.00;99.90
10247;DHT22;5168;47.854;7.944;2023-02-23T06:02:05;5.30;99.90
10247;DHT22;5168;47.854;7.944;2023-02-23T06:04:31;5.00;99.90
10247;DHT22;5168;47.854;7.944;2023-02-23T06:09:23;5.30;99.90
10247;DHT22;5168;47.854;7.944;2023-02-23T06:19:10;5.10;99.90
10247;DHT22;5168;47.854;7.944;2023-02-23T06:21:35;4.90;99.90
10247;DHT22;5168;47.854;7.944;2023-02-23T06:24:01;4.50;99.90
10247;DHT22;5168;47.854;7.944;2023-02-23T06:26:27;5.20;99.90
10247;DHT22;5168;47.854;7.944;2023-02-23T06:28:53;5.10;99.90
10247;DHT22;5168;47.854;7.944;2023-02-23T06:31:18;5.30;99.90
10247;DHT22;5168;47.854;7.944;2023-02-23T06:33:44;5.10;99.90
10247;DHT22;5168;47.854;7.944;2023-02-23T06:36:09;4.90;99.90
10247;DHT22;5168;47.854;7.944;2023-02-23T06:38:35;5.00;99.90
10247;DHT22;5168;47.854;7.944;2023-02-23T06:41:07;5.20;99.90
10247;DHT22;5168;47.854;7.944;2023-02-23T06:43:33;5.40;99.90
10247;DHT22;5168;47.854;7.944;2023-02-23T06:48:24;5.20;99.90
10247;DHT22;5168;47.854;7.944;2023-02-23T06:50:50;5.00;99.90
10247;DHT22;5168;47.854;7.944;2023-02-23T06:53:16;4.90;99.90
10247;DHT22;5168;47.854;7.944;2023-02-23T06:55:42;5.10;99.90
10247;DHT22;5168;47.854;7.944;2023-02-23T06:58:08;5.20;99.90
10247;DHT22;5168;47.854;7.944;2023-02-23T07:07:51;4.60;99.90
10247;DHT22;5168;47.854;7.944;2023-02-23T07:10:17;5.30;99.90
10247;DHT22;5168;47.854;7.944;2023-02-23T07:12:43;5.10;99.90
10247;DHT22;5168;47.854;7.944;2023-02-23T07:15:09;5.20;99.90
10247;DHT22;5168;47.854;7.944;2023-02-23T07:17:35;5.40;99.90
10247;DHT22;5168;47.854;7.944;2023-02-23T07:20:01;5.30;99.90
10247;DHT22;5168;47.854;7.944;2023-02-23T07:24:55;5.20;99.90
10247;DHT22;5168;47.854;7.944;2023-02-23T07:29:47;5.20;99.90
10247;DHT22;5168;47.854;7.944;2023-02-23T07:32:12;5.50;99.90
10247;DHT22;5168;47.854;7.944;2023-02-23T07:34:38;5.50;99.90
10247;DHT22;5168;47.854;7.944;2023-02-23T07:37:04;5.10;99.90
10247;DHT22;5168;47.854;7.944;2023-02-23T07:39:29;5.30;99.90
10247;DHT22;5168;47.854;7.944;2023-02-23T07:41:56;5.40;99.90
10247;DHT22;5168;47.854;7.944;2023-02-23T07:44:21;5.10;99.90
10247;DHT22;5168;47.854;7.944;2023-02-23T07:46:47;5.30;99.90
10247;DHT22;5168;47.854;7.944;2023-02-23T07:49:14;6.10;99.90
10247;DHT22;5168;47.854;7.944;2023-02-23T07:51:40;5.30;99.90
10247;DHT22;5168;47.854;7.944;2023-02-23T07:54:05;5.40;99.90
10247;DHT22;5168;47.854;7.944;2023-02-23T07:56:31;5.50;99.90
10247;DHT22;5168;47.854;7.944;2023-02-23T07:58:58;5.70;99.90
10247;DHT22;5168;47.854;7.944;2023-02-23T08:01:23;5.80;99.90
10247;DHT22;5168;47.854;7.944;2023-02-23T08:03:49;5.60;99.90
10247;DHT22;5168;47.854;7.944;2023-02-23T08:06:16;5.70;99.90
10247;DHT22;5168;47.854;7.944;2023-02-23T08:08:42;5.50;99.90
10247;DHT22;5168;47.854;7.944;2023-02-23T08:11:08;6.00;99.90
10247;DHT22;5168;47.854;7.944;2023-02-23T08:13:33;6.10;99.90
10247;DHT22;5168;47.854;7.944;2023-02-23T08:16:00;5.80;99.90
10247;DHT22;5168;47.854;7.944;2023-02-23T08:21:00;6.10;99.90
10247;DHT22;5168;47.854;7.944;2023-02-23T08:23:27;5.80;99.90
10247;DHT22;5168;47.854;7.944;2023-02-23T08:25:53;6.10;99.90
10247;DHT22;5168;47.854;7.944;2023-02-23T08:28:18;5.90;99.90
10247;DHT22;5168;47.854;7.944;2023-02-23T08:30:44;5.70;99.90
10247;DHT22;5168;47.854;7.944;2023-02-23T08:35:35;5.60;99.90
10247;DHT22;5168;47.854;7.944;2023-02-23T08:38:01;6.10;99.90
10247;DHT22;5168;47.854;7.944;2023-02-23T08:40:26;5.70;99.90
10247;DHT22;5168;47.854;7.944;2023-02-23T08:45:18;5.70;99.90
10247;DHT22;5168;47.854;7.944;2023-02-23T08:47:44;5.60;99.90
10247;DHT22;5168;47.854;7.944;2023-02-23T08:50:11;5.80;99.90
10247;DHT22;5168;47.854;7.944;2023-02-23T08:52:37;5.80;99.90
10247;DHT22;5168;47.854;7.944;2023-02-23T08:55:03;6.10;99.90
10247;DHT22;5168;47.854;7.944;2023-02-23T08:57:36;6.00;99.90
10247;DHT22;5168;47.854;7.944;2023-02-23T09:00:03;6.00;99.90
10247;DHT22;5168;47.854;7.944;2023-02-23T09:05:02;6.00;99.90
10247;DHT22;5168;47.854;7.944;2023-02-23T09:07:27;5.90;99.90
10247;DHT22;5168;47.854;7.944;2023-02-23T09:09:54;5.80;99.90
10247;DHT22;5168;47.854;7.944;2023-02-23T09:17:12;6.20;99.90
10247;DHT22;5168;47.854;7.944;2023-02-23T09:19:37;6.10;99.90
10247;DHT22;5168;47.854;7.944;2023-02-23T09:22:02;6.30;99.90
10247;DHT22;5168;47.854;7.944;2023-02-23T09:26:54;6.60;99.90
10247;DHT22;5168;47.854;7.944;2023-02-23T09:29:20;6.40;99.90
10247;DHT22;5168;47.854;7.944;2023-02-23T09:31:45;6.10;99.90
10247;DHT22;5168;47.854;7.944;2023-02-23T09:36:38;5.90;99.90
10247;DHT22;5168;47.854;7.944;2023-02-23T09:39:03;6.10;99.90
10247;DHT22;5168;47.854;7.944;2023-02-23T09:49:45;6.30;99.90
10247;DHT22;5168;47.854;7.944;2023-02-23T09:52:37;6.60;99.90
10247;DHT22;5168;47.854;7.944;2023-02-23T09:55:04;6.60;99.90
10247;DHT22;5168;47.854;7.944;2023-02-23T09:57:37;6.60;99.90
10247;DHT22;5168;47.854;7.944;2023-02-23T10:00:17;6.50;99.90
10247;DHT22;5168;47.854;7.944;2023-02-23T10:03:16;6.40;99.90
10247;DHT22;5168;47.854;7.944;2023-02-23T10:05:46;6.80;99.90
10247;DHT22;5168;47.854;7.944;2023-02-23T10:16:23;6.50;99.90
10247;DHT22;5168;47.854;7.944;2023-02-23T10:21:33;7.00;99.90
10247;DHT22;5168;47.854;7.944;2023-02-23T10:24:06;6.90;99.90
10247;DHT22;5168;47.854;7.944;2023-02-23T10:26:40;7.30;99.90
10247;DHT22;5168;47.854;7.944;2023-02-23T10:29:22;7.70;99.90
10247;DHT22;5168;47.854;7.944;2023-02-23T10:31:57;8.40;99.90
10247;DHT22;5168;47.854;7.944;2023-02-23T10:34:25;8.90;99.90
10247;DHT22;5168;47.854;7.944;2023-02-23T10:39:22;10.20;99.90
10247;DHT22;5168;47.854;7.944;2023-02-23T10:44:20;10.40;99.90
10247;DHT22;5168;47.854;7.944;2023-02-23T10:46:53;9.90;99.90
10247;DHT22;5168;47.854;7.944;2023-02-23T10:49:21;9.80;99.90
10247;DHT22;5168;47.854;7.944;2023-02-23T10:51:49;9.60;99.90
10247;DHT22;5168;47.854;7.944;2023-02-23T10:54:43;9.70;99.90
10247;DHT22;5168;47.854;7.944;2023-02-23T10:57:18;9.30;99.90
10247;DHT22;5168;47.854;7.944;2023-02-23T11:00:00;9.80;99.90
10247;DHT22;5168;47.854;7.944;2023-02-23T11:02:28;9.20;99.90
10247;DHT22;5168;47.854;7.944;2023-02-23T11:04:57;9.40;99.90
10247;DHT22;5168;47.854;7.944;2023-02-23T11:07:26;9.40;99.90
10247;DHT22;5168;47.854;7.944;2023-02-23T11:09:59;10.20;99.90
10247;DHT22;5168;47.854;7.944;2023-02-23T11:12:42;10.40;99.90
10247;DHT22;5168;47.854;7.944;2023-02-23T11:18:00;10.00;99.90
10247;DHT22;5168;47.854;7.944;2023-02-23T11:20:36;10.20;99.90
10247;DHT22;5168;47.854;7.944;2023-02-23T11:23:15;10.10;99.90
10247;DHT22;5168;47.854;7.944;2023-02-23T11:25:43;10.80;99.90
10247;DHT22;5168;47.854;7.944;2023-02-23T11:28:17;11.40;99.90
10247;DHT22;5168;47.854;7.944;2023-02-23T11:30:45;12.00;99.90
10247;DHT22;5168;47.854;7.944;2023-02-23T11:33:16;12.70;99.90
10247;DHT22;5168;47.854;7.944;2023-02-23T11:35:44;12.90;99.90
10247;DHT22;5168;47.854;7.944;2023-02-23T11:38:23;13.60;99.90
10247;DHT22;5168;47.854;7.944;2023-02-23T11:41:01;13.30;99.90
10247;DHT22;5168;47.854;7.944;2023-02-23T11:43:27;12.90;99.90
10247;DHT22;5168;47.854;7.944;2023-02-23T11:45:56;12.40;99.90
10247;DHT22;5168;47.854;7.944;2023-02-23T11:48:36;11.70;99.90
10247;DHT22;5168;47.854;7.944;2023-02-23T11:51:07;11.60;99.90
10247;DHT22;5168;47.854;7.944;2023-02-23T11:53:37;11.40;99.90
10247;DHT22;5168;47.854;7.944;2023-02-23T11:56:05;11.30;99.90
10247;DHT22;5168;47.854;7.944;2023-02-23T11:58:43;10.40;99.90
10247;DHT22;5168;47.854;7.944;2023-02-23T12:01:17;10.80;99.90
10247;DHT22;5168;47.854;7.944;2023-02-23T12:03:55;10.30;99.90
10247;DHT22;5168;47.854;7.944;2023-02-23T12:06:38;9.80;99.90
10247;DHT22;5168;47.854;7.944;2023-02-23T12:09:17;9.50;99.90
10247;DHT22;5168;47.854;7.944;2023-02-23T12:12:02;9.70;99.90
10247;DHT22;5168;47.854;7.944;2023-02-23T12:14:50;9.40;99.90
10247;DHT22;5168;47.854;7.944;2023-02-23T12:17:24;9.40;99.90
10247;DHT22;5168;47.854;7.944;2023-02-23T12:19:58;9.60;99.90
10247;DHT22;5168;47.854;7.944;2023-02-23T12:22:31;9.50;99.90
10247;DHT22;5168;47.854;7.944;2023-02-23T12:25:08;9.30;99.90
10247;DHT22;5168;47.854;7.944;2023-02-23T12:28:00;9.40;99.90
10247;DHT22;5168;47.854;7.944;2023-02-23T12:30:27;9.50;99.90
10247;DHT22;5168;47.854;7.944;2023-02-23T12:33:03;8.50;99.90
10247;DHT22;5168;47.854;7.944;2023-02-23T12:35:53;9.50;99.90
10247;DHT22;5168;47.854;7.944;2023-02-23T12:41:15;8.70;99.90
10247;DHT22;5168;47.854;7.944;2023-02-23T12:43:54;9.20;99.90
10247;DHT22;5168;47.854;7.944;2023-02-23T12:46:27;8.80;99.90
10247;DHT22;5168;47.854;7.944;2023-02-23T12:54:14;9.10;99.90
10247;DHT22;5168;47.854;7.944;2023-02-23T12:59:44;8.50;99.90
10247;DHT22;5168;47.854;7.944;2023-02-23T13:02:38;8.80;99.90
10247;DHT22;5168;47.854;7.944;2023-02-23T13:08:10;8.60;99.90
10247;DHT22;5168;47.854;7.944;2023-02-23T13:11:11;8.50;99.90
10247;DHT22;5168;47.854;7.944;2023-02-23T13:13:58;8.70;99.90
10247;DHT22;5168;47.854;7.944;2023-02-23T13:16:35;8.60;99.90
10247;DHT22;5168;47.854;7.944;2023-02-23T13:22:10;8.50;99.90
10247;DHT22;5168;47.854;7.944;2023-02-23T13:24:44;8.40;99.90
10247;DHT22;5168;47.854;7.944;2023-02-23T13:27:39;8.40;99.90
10247;DHT22;5168;47.854;7.944;2023-02-23T13:30:10;8.70;99.90
10247;DHT22;5168;47.854;7.944;2023-02-23T13:35:05;8.30;99.90
10247;DHT22;5168;47.854;7.944;2023-02-23T13:37:49;8.30;99.90
10247;DHT22;5168;47.854;7.944;2023-02-23T13:40:35;8.40;99.90
10247;DHT22;5168;47.854;7.944;2023-02-23T13:43:18;8.20;99.90
10247;DHT22;5168;47.854;7.944;2023-02-23T13:46:14;9.00;99.90
10247;DHT22;5168;47.854;7.944;2023-02-23T13:51:54;9.00;99.90
10247;DHT22;5168;47.854;7.944;2023-02-23T13:54:31;9.00;99.90
10247;DHT22;5168;47.854;7.944;2023-02-23T13:56:59;9.50;99.90
10247;DHT22;5168;47.854;7.944;2023-02-23T13:59:35;9.10;99.90
10247;DHT22;5168;47.854;7.944;2023-02-23T14:02:20;9.50;99.90
10247;DHT22;5168;47.854;7.944;2023-02-23T14:04:48;9.20;99.90
10247;DHT22;5168;47.854;7.944;2023-02-23T14:07:25;9.90;99.90
10247;DHT22;5168;47.854;7.944;2023-02-23T14:09:55;9.40;99.90
10247;DHT22;5168;47.854;7.944;2023-02-23T14:12:34;9.90;99.90
10247;DHT22;5168;47.854;7.944;2023-02-23T14:20:51;10.00;99.90
10247;DHT22;5168;47.854;7.944;2023-02-23T14:38:45;9.40;99.90
10247;DHT22;5168;47.854;7.944;2023-02-23T14:46:09;9.50;99.90
10247;DHT22;5168;47.854;7.944;2023-02-23T14:48:36;9.50;99.90
10247;DHT22;5168;47.854;7.944;2023-02-23T14:51:20;9.30;99.90
10247;DHT22;5168;47.854;7.944;2023-02-23T14:53:46;9.70;99.90
10247;DHT22;5168;47.854;7.944;2023-02-23T14:56:20;9.30;99.90
10247;DHT22;5168;47.854;7.944;2023-02-23T14:58:53;9.20;99.90
10247;DHT22;5168;47.854;7.944;2023-02-23T15:01:33;9.20;99.90
10247;DHT22;5168;47.854;7.944;2023-02-23T15:04:09;9.40;99.90
10247;DHT22;5168;47.854;7.944;2023-02-23T15:06:36;9.70;99.90
10247;DHT22;5168;47.854;7.944;2023-02-23T15:13:56;9.40;99.90
10247;DHT22;5168;47.854;7.944;2023-02-23T15:16:35;9.40;99.90
10247;DHT22;5168;47.854;7.944;2023-02-23T15:19:30;9.50;99.90
10247;DHT22;5168;47.854;7.944;2023-02-23T15:21:58;9.20;99.90
10247;DHT22;5168;47.854;7.944;2023-02-23T15:24:29;9.40;99.90
10247;DHT22;5168;47.854;7.944;2023-02-23T15:29:32;9.00;99.90
10247;DHT22;5168;47.854;7.944;2023-02-23T15:32:11;8.90;99.90
10247;DHT22;5168;47.854;7.944;2023-02-23T15:34:39;8.70;99.90
10247;DHT22;5168;47.854;7.944;2023-02-23T15:39:55;8.90;99.90
10247;DHT22;5168;47.854;7.944;2023-02-23T15:42:38;8.80;99.90
10247;DHT22;5168;47.854;7.944;2023-02-23T15:45:13;8.80;99.90
10247;DHT22;5168;47.854;7.944;2023-02-23T15:47:41;9.00;99.90
10247;DHT22;5168;47.854;7.944;2023-02-23T15:50:46;8.90;99.90
10247;DHT22;5168;47.854;7.944;2023-02-23T15:53:29;8.60;99.90
10247;DHT22;5168;47.854;7.944;2023-02-23T15:56:02;8.80;99.90
10247;DHT22;5168;47.854;7.944;2023-02-23T15:58:37;8.90;99.90
10247;DHT22;5168;47.854;7.944;2023-02-23T16:01:25;8.80;99.90
10247;DHT22;5168;47.854;7.944;2023-02-23T16:04:05;8.40;99.90
10247;DHT22;5168;47.854;7.944;2023-02-23T16:06:33;8.40;99.90
10247;DHT22;5168;47.854;7.944;2023-02-23T16:14:30;8.20;99.90
10247;DHT22;5168;47.854;7.944;2023-02-23T16:16:57;8.10;99.90
10247;DHT22;5168;47.854;7.944;2023-02-23T16:19:24;8.10;99.90
10247;DHT22;5168;47.854;7.944;2023-02-23T16:21:54;8.00;99.90
10247;DHT22;5168;47.854;7.944;2023-02-23T16:24:25;8.10;99.90
10247;DHT22;5168;47.854;7.944;2023-02-23T16:27:00;7.50;99.90
10247;DHT22;5168;47.854;7.944;2023-02-23T16:29:31;7.60;99.90
10247;DHT22;5168;47.854;7.944;2023-02-23T16:32:01;7.40;99.90
10247;DHT22;5168;47.854;7.944;2023-02-23T16:34:33;7.40;99.90
10247;DHT22;5168;47.854;7.944;2023-02-23T16:37:03;7.20;99.90
10247;DHT22;5168;47.854;7.944;2023-02-23T16:39:30;7.20;99.90
10247;DHT22;5168;47.854;7.944;2023-02-23T16:41:57;7.10;99.90
10247;DHT22;5168;47.854;7.944;2023-02-23T16:44:25;6.80;99.90
10247;DHT22;5168;47.854;7.944;2023-02-23T16:47:26;6.80;99.90
10247;DHT22;5168;47.854;7.944;2023-02-23T16:52:16;6.60;99.90
10247;DHT22;5168;47.854;7.944;2023-02-23T16:54:42;6.60;99.90
10247;DHT22;5168;47.854;7.944;2023-02-23T16:57:19;5.90;99.90
10247;DHT22;5168;47.854;7.944;2023-02-23T16:59:47;5.30;99.90
10247;DHT22;5168;47.854;7.944;2023-02-23T17:02:16;6.00;99.90
10247;DHT22;5168;47.854;7.944;2023-02-23T17:04:43;6.10;99.90
10247;DHT22;5168;47.854;7.944;2023-02-23T17:07:14;6.10;99.90
10247;DHT22;5168;47.854;7.944;2023-02-23T17:12:07;5.90;99.90
10247;DHT22;5168;47.854;7.944;2023-02-23T17:14:34;5.60;99.90
10247;DHT22;5168;47.854;7.944;2023-02-23T17:16:59;5.80;99.90
10247;DHT22;5168;47.854;7.944;2023-02-23T17:19:25;5.80;99.90
10247;DHT22;5168;47.854;7.944;2023-02-23T17:24:16;5.80;99.90
10247;DHT22;5168;47.854;7.944;2023-02-23T17:26:42;5.40;99.90
10247;DHT22;5168;47.854;7.944;2023-02-23T17:29:07;5.70;99.90
10247;DHT22;5168;47.854;7.944;2023-02-23T17:34:00;5.60;99.90
10247;DHT22;5168;47.854;7.944;2023-02-23T17:36:26;5.70;99.90
10247;DHT22;5168;47.854;7.944;2023-02-23T17:38:54;5.40;99.90
10247;DHT22;5168;47.854;7.944;2023-02-23T17:41:26;5.60;99.90
10247;DHT22;5168;47.854;7.944;2023-02-23T17:43:52;5.30;99.90
10247;DHT22;5168;47.854;7.944;2023-02-23T17:46:18;5.50;99.90
10247;DHT22;5168;47.854;7.944;2023-02-23T17:48:43;5.20;99.90
10247;DHT22;5168;47.854;7.944;2023-02-23T17:51:12;5.20;99.90
10247;DHT22;5168;47.854;7.944;2023-02-23T17:53:38;5.20;99.90
10247;DHT22;5168;47.854;7.944;2023-02-23T18:00:59;5.20;99.90
10247;DHT22;5168;47.854;7.944;2023-02-23T18:03:26;5.20;99.90
10247;DHT22;5168;47.854;7.944;2023-02-23T18:05:59;5.30;99.90
10247;DHT22;5168;47.854;7.944;2023-02-23T18:10:51;5.00;99.90
10247;DHT22;5168;47.854;7.944;2023-02-23T18:13:17;4.90;99.90
10247;DHT22;5168;47.854;7.944;2023-02-23T18:15:50;5.00;99.90
10247;DHT22;5168;47.854;7.944;2023-02-23T18:18:17;5.00;99.90
10247;DHT22;5168;47.854;7.944;2023-02-23T18:21:12;5.10;99.90
10247;DHT22;5168;47.854;7.944;2023-02-23T18:23:38;5.00;99.90
10247;DHT22;5168;47.854;7.944;2023-02-23T18:26:05;5.60;99.90
10247;DHT22;5168;47.854;7.944;2023-02-23T18:28:32;5.20;99.90
10247;DHT22;5168;47.854;7.944;2023-02-23T18:30:57;4.60;99.90
10247;DHT22;5168;47.854;7.944;2023-02-23T18:33:23;5.10;99.90
10247;DHT22;5168;47.854;7.944;2023-02-23T18:35:48;5.00;99.90
10247;DHT22;5168;47.854;7.944;2023-02-23T18:40:41;4.80;99.90
10247;DHT22;5168;47.854;7.944;2023-02-23T18:43:07;4.70;99.90
10247;DHT22;5168;47.854;7.944;2023-02-23T18:45:33;5.20;99.90
10247;DHT22;5168;47.854;7.944;2023-02-23T18:50:25;4.80;99.90
10247;DHT22;5168;47.854;7.944;2023-02-23T18:52:53;4.80;99.90
10247;DHT22;5168;47.854;7.944;2023-02-23T18:55:20;4.70;99.90
10247;DHT22;5168;47.854;7.944;2023-02-23T18:57:46;4.80;99.90
10247;DHT22;5168;47.854;7.944;2023-02-23T19:00:14;4.80;99.90
10247;DHT22;5168;47.854;7.944;2023-02-23T19:02:40;4.30;99.90
10247;DHT22;5168;47.854;7.944;2023-02-23T19:05:08;4.50;99.90
10247;DHT22;5168;47.854;7.944;2023-02-23T19:12:32;4.70;99.90
10247;DHT22;5168;47.854;7.944;2023-02-23T19:17:25;4.70;99.90
10247;DHT22;5168;47.854;7.944;2023-02-23T19:19:51;5.20;99.90
10247;DHT22;5168;47.854;7.944;2023-02-23T19:22:22;4.70;99.90
10247;DHT22;5168;47.854;7.944;2023-02-23T19:24:48;3.80;99.90
10247;DHT22;5168;47.854;7.944;2023-02-23T19:27:13;4.50;99.90
10247;DHT22;5168;47.854;7.944;2023-02-23T19:29:40;4.60;99.90
10247;DHT22;5168;47.854;7.944;2023-02-23T19:32:06;4.30;99.90
10247;DHT22;5168;47.854;7.944;2023-02-23T19:34:31;4.60;99.90
10247;DHT22;5168;47.854;7.944;2023-02-23T19:46:41;4.30;99.90
10247;DHT22;5168;47.854;7.944;2023-02-23T19:49:07;4.40;99.90
10247;DHT22;5168;47.854;7.944;2023-02-23T19:51:33;3.90;99.90
10247;DHT22;5168;47.854;7.944;2023-02-23T19:53:59;4.30;99.90
10247;DHT22;5168;47.854;7.944;2023-02-23T19:56:26;4.30;99.90
10247;DHT22;5168;47.854;7.944;2023-02-23T19:58:54;4.50;99.90
10247;DHT22;5168;47.854;7.944;2023-02-23T20:01:21;4.10;99.90
10247;DHT22;5168;47.854;7.944;2023-02-23T20:03:48;4.40;99.90
10247;DHT22;5168;47.854;7.944;2023-02-23T20:06:21;4.20;99.90
10247;DHT22;5168;47.854;7.944;2023-02-23T20:08:47;4.10;99.90
10247;DHT22;5168;47.854;7.944;2023-02-23T20:11:13;4.90;99.90
10247;DHT22;5168;47.854;7.944;2023-02-23T20:13:40;4.10;99.90
10247;DHT22;5168;47.854;7.944;2023-02-23T20:16:13;4.20;99.90
10247;DHT22;5168;47.854;7.944;2023-02-23T20:18:39;4.30;99.90
10247;DHT22;5168;47.854;7.944;2023-02-23T20:21:09;4.20;99.90
10247;DHT22;5168;47.854;7.944;2023-02-23T20:23:35;4.70;99.90
10247;DHT22;5168;47.854;7.944;2023-02-23T20:26:09;4.30;99.90
10247;DHT22;5168;47.854;7.944;2023-02-23T20:28:35;4.50;99.90
10247;DHT22;5168;47.854;7.944;2023-02-23T20:31:01;4.20;99.90
10247;DHT22;5168;47.854;7.944;2023-02-23T20:33:28;4.10;99.90
10247;DHT22;5168;47.854;7.944;2023-02-23T20:40:45;4.50;99.90
10247;DHT22;5168;47.854;7.944;2023-02-23T20:45:37;4.00;99.90
10247;DHT22;5168;47.854;7.944;2023-02-23T20:48:06;4.30;99.90